createdAt,value
2018-04-13T00:00:32.360Z,17.50
2018-04-13T00:02:59.754Z,17.40
2018-04-13T00:05:28.369Z,17.30
2018-04-13T00:10:24.095Z,17.30
2018-04-13T00:12:52.174Z,17.20
2018-04-13T00:15:20.754Z,17.20
2018-04-13T00:17:48.387Z,17.20
2018-04-13T00:20:15.998Z,17.20
2018-04-13T00:22:44.095Z,17.20
2018-04-13T00:25:12.232Z,17.20
2018-04-13T00:27:40.333Z,17.20
2018-04-13T00:32:38.696Z,17.20
2018-04-13T00:35:06.054Z,17.20
2018-04-13T00:37:34.263Z,17.20
2018-04-13T00:40:01.753Z,16.90
2018-04-13T00:42:29.155Z,16.80
2018-04-13T00:44:56.520Z,16.90
2018-04-13T00:52:21.139Z,16.70
2018-04-13T00:54:48.797Z,16.80
2018-04-13T00:57:17.057Z,16.80
2018-04-13T00:59:44.492Z,16.90
2018-04-13T01:02:11.854Z,16.70
2018-04-13T01:04:39.313Z,16.70
2018-04-13T01:07:07.446Z,16.60
2018-04-13T01:09:34.823Z,16.60
2018-04-13T01:12:02.190Z,16.70
2018-04-13T01:14:34.527Z,16.70
2018-04-13T01:17:01.891Z,16.60
2018-04-13T01:19:29.285Z,16.70
2018-04-13T01:21:56.673Z,16.60
2018-04-13T01:24:24.047Z,16.70
2018-04-13T01:26:51.473Z,16.70
2018-04-13T01:29:19.886Z,16.60
2018-04-13T01:31:47.277Z,16.60
2018-04-13T01:34:15.402Z,16.50
2018-04-13T01:36:42.743Z,16.50
2018-04-13T01:39:10.095Z,16.60
2018-04-13T01:41:37.752Z,16.60
2018-04-13T01:44:05.181Z,16.40
2018-04-13T01:46:32.614Z,16.50
2018-04-13T01:49:00.377Z,16.50
2018-04-13T01:51:27.739Z,16.50
2018-04-13T01:53:55.113Z,16.30
2018-04-13T01:56:22.526Z,16.30
2018-04-13T01:58:49.884Z,16.30
2018-04-13T02:01:17.306Z,16.50
2018-04-13T02:03:45.691Z,16.50
2018-04-13T02:06:13.048Z,16.40
2018-04-13T02:08:40.426Z,16.30
2018-04-13T02:11:07.795Z,16.30
2018-04-13T02:13:35.202Z,16.40
2018-04-13T02:16:02.711Z,16.40
2018-04-13T02:18:30.884Z,16.40
2018-04-13T02:20:58.250Z,16.40
2018-04-13T02:23:26.356Z,16.40
2018-04-13T02:25:57.466Z,16.40
2018-04-13T02:28:24.894Z,16.30
2018-04-13T02:30:52.686Z,16.20
2018-04-13T02:33:20.042Z,16.10
2018-04-13T02:35:47.831Z,16.20
2018-04-13T02:38:15.218Z,16.30
2018-04-13T02:40:43.580Z,16.20
2018-04-13T02:43:11.830Z,16.00
2018-04-13T02:45:41.188Z,16.00
2018-04-13T02:48:10.469Z,16.00
2018-04-13T02:50:37.846Z,16.20
2018-04-13T02:53:05.190Z,16.30
2018-04-13T02:55:34.578Z,16.50
2018-04-13T02:58:01.935Z,16.50
2018-04-13T03:00:29.353Z,16.20
2018-04-13T03:02:56.684Z,16.20
2018-04-13T03:05:24.842Z,16.20
2018-04-13T03:07:52.185Z,16.40
2018-04-13T03:10:22.299Z,16.40
2018-04-13T03:12:51.570Z,16.50
2018-04-13T03:15:18.932Z,16.50
2018-04-13T03:17:46.299Z,16.50
2018-04-13T03:20:13.764Z,16.50
2018-04-13T03:22:41.173Z,16.40
2018-04-13T03:25:08.554Z,16.30
2018-04-13T03:27:37.950Z,16.30
2018-04-13T03:30:06.058Z,16.30
2018-04-13T03:32:37.338Z,16.30
2018-04-13T03:35:06.362Z,16.20
2018-04-13T03:37:34.921Z,16.10
2018-04-13T03:40:05.079Z,16.10
2018-04-13T03:42:32.531Z,16.20
2018-04-13T03:47:33.184Z,16.30
2018-04-13T03:50:03.168Z,16.20
2018-04-13T03:52:31.262Z,16.20
2018-04-13T03:54:58.665Z,16.30
2018-04-13T04:02:27.898Z,16.20
2018-04-13T04:04:56.072Z,16.30
2018-04-13T04:07:23.430Z,16.40
2018-04-13T04:12:21.923Z,16.40
2018-04-13T04:14:50.838Z,16.30
2018-04-13T04:17:19.858Z,16.20
2018-04-13T04:23:03.223Z,16.20
2018-04-13T04:25:56.003Z,16.20
2018-04-13T04:28:24.949Z,16.30
2018-04-13T04:30:53.902Z,16.30
2018-04-13T04:33:21.270Z,16.30
2018-04-13T04:35:48.594Z,16.30
2018-04-13T04:38:18.617Z,16.30
2018-04-13T04:40:53.305Z,16.30
2018-04-13T04:43:20.770Z,16.30
2018-04-13T04:45:48.134Z,16.40
2018-04-13T04:48:18.026Z,16.40
2018-04-13T04:50:46.372Z,16.50
2018-04-13T04:53:13.775Z,16.70
2018-04-13T04:55:45.594Z,16.80
2018-04-13T04:58:12.974Z,16.80
2018-04-13T05:00:40.353Z,16.80
2018-04-13T05:03:07.945Z,16.80
2018-04-13T05:05:35.381Z,16.80
2018-04-13T05:08:03.474Z,16.70
2018-04-13T05:10:30.841Z,16.60
2018-04-13T05:13:04.897Z,16.60
2018-04-13T05:15:32.282Z,16.60
2018-04-13T05:18:00.457Z,16.70
2018-04-13T05:20:27.847Z,16.70
2018-04-13T05:22:55.315Z,16.70
2018-04-13T05:25:22.731Z,16.70
2018-04-13T05:27:50.138Z,16.70
2018-04-13T05:30:17.527Z,16.70
2018-04-13T05:32:45.774Z,16.70
2018-04-13T05:35:13.144Z,16.80
2018-04-13T05:37:42.267Z,16.80
2018-04-13T05:40:10.363Z,16.90
2018-04-13T05:42:37.727Z,16.90
2018-04-13T05:45:05.130Z,17.00
2018-04-13T05:47:32.590Z,17.00
2018-04-13T05:50:00.722Z,17.00
2018-04-13T05:52:30.032Z,17.00
2018-04-13T05:54:57.390Z,17.00
2018-04-13T05:57:24.826Z,17.10
2018-04-13T05:59:52.197Z,17.20
2018-04-13T06:02:19.583Z,17.20
2018-04-13T06:04:47.034Z,17.10
2018-04-13T06:07:14.374Z,17.00
2018-04-13T06:09:41.748Z,17.00
2018-04-13T06:12:09.883Z,16.90
2018-04-13T06:14:37.238Z,17.00
2018-04-13T06:17:04.614Z,16.90
2018-04-13T06:19:32.929Z,16.90
2018-04-13T06:22:00.329Z,16.40
2018-04-13T06:24:28.617Z,16.30
2018-04-13T06:26:55.966Z,16.60
2018-04-13T06:31:51.650Z,17.00
2018-04-13T06:34:19.066Z,17.00
2018-04-13T06:36:46.434Z,16.90
2018-04-13T06:39:14.523Z,16.60
2018-04-13T06:41:42.824Z,16.50
2018-04-13T06:44:10.214Z,16.70
2018-04-13T06:46:37.615Z,16.70
2018-04-13T06:49:05.429Z,16.80
2018-04-13T06:51:33.179Z,16.60
2018-04-13T06:54:00.548Z,16.70
2018-04-13T06:56:28.644Z,16.90
2018-04-13T06:58:56.765Z,17.10
2018-04-13T07:01:24.186Z,17.20
2018-04-13T07:03:51.655Z,17.20
2018-04-13T07:06:20.237Z,17.30
2018-04-13T07:08:47.603Z,17.50
2018-04-13T07:11:14.998Z,17.50
2018-04-13T07:13:42.381Z,17.60
2018-04-13T07:16:09.730Z,17.70
2018-04-13T07:18:37.823Z,17.70
2018-04-13T07:21:05.967Z,17.60
2018-04-13T07:23:34.214Z,17.60
2018-04-13T07:26:01.583Z,17.70
2018-04-13T07:28:29.697Z,17.80
2018-04-13T07:30:57.376Z,17.80
2018-04-13T07:33:24.758Z,17.80
2018-04-13T07:35:56.457Z,17.70
2018-04-13T07:38:33.615Z,17.60
2018-04-13T07:41:08.022Z,17.60
2018-04-13T07:43:41.761Z,17.80
2018-04-13T07:46:12.853Z,17.80
2018-04-13T07:48:40.215Z,17.70
2018-04-13T07:51:07.610Z,17.80
2018-04-13T07:53:35.963Z,17.70
2018-04-13T07:56:06.768Z,17.60
2018-04-13T07:58:36.012Z,17.50
2018-04-13T08:01:08.314Z,17.70
2018-04-13T08:03:38.238Z,17.60
2018-04-13T08:06:06.529Z,17.70
2018-04-13T08:08:34.914Z,17.60
2018-04-13T08:11:02.304Z,17.60
2018-04-13T08:13:30.565Z,17.60
2018-04-13T08:15:57.942Z,17.70
2018-04-13T08:18:29.997Z,17.70
2018-04-13T08:20:57.419Z,17.50
2018-04-13T08:23:24.815Z,17.50
2018-04-13T08:25:52.995Z,17.70
2018-04-13T08:28:21.133Z,18.00
2018-04-13T08:30:48.539Z,18.10
2018-04-13T08:33:15.953Z,18.20
2018-04-13T08:35:43.323Z,18.30
2018-04-13T08:38:10.756Z,18.10
2018-04-13T08:40:38.133Z,18.00
2018-04-13T08:43:08.862Z,18.10
2018-04-13T08:45:37.074Z,18.30
2018-04-13T08:48:04.440Z,18.40
2018-04-13T08:50:34.708Z,18.30
2018-04-13T08:53:02.153Z,18.20
2018-04-13T08:55:29.554Z,18.20
2018-04-13T08:57:58.794Z,18.20
2018-04-13T09:00:26.183Z,18.40
2018-04-13T09:02:53.558Z,18.60
2018-04-13T09:05:20.953Z,18.60
2018-04-13T09:07:50.353Z,18.70
2018-04-13T09:10:17.771Z,18.60
2018-04-13T09:12:48.966Z,18.40
2018-04-13T09:15:16.364Z,18.40
2018-04-13T09:17:44.608Z,18.30
2018-04-13T09:20:12.822Z,18.40
2018-04-13T09:22:40.948Z,18.50
2018-04-13T09:25:09.255Z,18.60
2018-04-13T09:27:36.654Z,18.70
2018-04-13T09:30:04.343Z,18.80
2018-04-13T09:32:31.704Z,18.80
2018-04-13T09:35:02.958Z,18.70
2018-04-13T09:37:31.151Z,18.40
2018-04-13T09:40:00.402Z,18.20
2018-04-13T09:42:33.996Z,18.30
2018-04-13T09:45:06.276Z,18.40
2018-04-13T09:47:38.166Z,18.60
2018-04-13T09:50:08.231Z,18.40
2018-04-13T09:52:38.286Z,18.30
2018-04-13T09:55:05.652Z,18.30
2018-04-13T09:57:38.335Z,18.20
2018-04-13T10:00:19.522Z,18.20
2018-04-13T10:03:00.475Z,18.10
2018-04-13T10:05:34.053Z,18.20
2018-04-13T10:08:02.483Z,18.20
2018-04-13T10:10:30.618Z,18.30
2018-04-13T10:13:00.855Z,18.30
2018-04-13T10:15:30.773Z,18.30
2018-04-13T10:18:01.948Z,18.20
2018-04-13T10:20:32.278Z,18.10
2018-04-13T10:23:00.521Z,18.10
2018-04-13T10:25:31.458Z,18.00
2018-04-13T10:27:59.508Z,18.00
2018-04-13T10:30:26.952Z,18.00
2018-04-13T10:32:54.332Z,17.90
2018-04-13T10:35:22.456Z,17.80
2018-04-13T10:37:49.891Z,17.70
2018-04-13T10:40:17.369Z,17.60
2018-04-13T10:42:45.769Z,17.40
2018-04-13T10:45:13.159Z,17.20
2018-04-13T10:47:41.286Z,17.00
2018-04-13T10:50:08.649Z,16.90
2018-04-13T10:52:36.055Z,16.80
2018-04-13T10:55:05.776Z,16.70
2018-04-13T10:57:34.979Z,16.50
2018-04-13T11:00:04.599Z,16.30
2018-04-13T11:02:31.990Z,16.40
2018-04-13T11:05:00.252Z,16.50
2018-04-13T11:07:28.659Z,16.60
2018-04-13T11:09:56.791Z,16.70
2018-04-13T11:12:25.857Z,16.70
2018-04-13T11:14:54.162Z,16.70
2018-04-13T11:17:22.381Z,16.70
2018-04-13T11:19:50.598Z,16.80
2018-04-13T11:22:17.965Z,16.80
2018-04-13T11:24:45.394Z,16.80
2018-04-13T11:27:16.759Z,16.70
2018-04-13T11:29:44.239Z,16.60
2018-04-13T11:32:11.591Z,16.50
2018-04-13T11:34:42.618Z,16.40
2018-04-13T11:37:09.995Z,16.30
2018-04-13T11:39:37.383Z,16.30
2018-04-13T11:42:04.879Z,16.50
2018-04-13T11:44:34.979Z,16.60
2018-04-13T11:47:07.084Z,16.70
2018-04-13T11:49:35.471Z,16.70
2018-04-13T11:52:04.676Z,16.60
2018-04-13T11:54:32.091Z,16.70
2018-04-13T11:57:04.278Z,16.70
2018-04-13T11:59:34.380Z,16.70
2018-04-13T12:02:02.580Z,16.60
2018-04-13T12:04:30.025Z,16.70
2018-04-13T12:07:03.983Z,16.70
2018-04-13T12:09:32.108Z,16.50
2018-04-13T12:11:59.462Z,16.50
2018-04-13T12:14:26.889Z,16.50
2018-04-13T12:16:55.295Z,16.60
2018-04-13T12:19:22.680Z,16.50
2018-04-13T12:21:50.465Z,16.50
2018-04-13T12:24:17.843Z,16.60
2018-04-13T12:26:45.691Z,16.60
2018-04-13T12:29:13.114Z,16.60
2018-04-13T12:31:40.538Z,16.60
2018-04-13T12:34:07.893Z,16.60
2018-04-13T12:36:35.282Z,16.60
2018-04-13T12:39:03.411Z,16.60
2018-04-13T12:41:30.879Z,16.60
2018-04-13T12:43:58.575Z,16.60
2018-04-13T12:46:25.948Z,16.70
2018-04-13T12:48:53.375Z,16.70
2018-04-13T12:51:20.781Z,16.70
2018-04-13T12:53:48.249Z,16.70
2018-04-13T12:56:15.774Z,16.70
2018-04-13T12:58:43.131Z,16.70
2018-04-13T13:01:11.258Z,16.70
2018-04-13T13:03:38.631Z,16.80
2018-04-13T13:06:06.053Z,16.90
2018-04-13T13:08:33.507Z,17.00
2018-04-13T13:11:01.934Z,17.00
2018-04-13T13:13:30.239Z,17.00
2018-04-13T13:16:00.435Z,16.90
2018-04-13T13:18:27.959Z,16.80
2018-04-13T13:20:55.302Z,16.80
2018-04-13T13:23:22.651Z,16.80
2018-04-13T13:25:50.026Z,16.70
2018-04-13T13:28:17.388Z,16.70
2018-04-13T13:30:44.901Z,16.80
2018-04-13T13:35:41.393Z,16.50
2018-04-13T13:38:08.810Z,16.50
2018-04-13T13:40:36.166Z,16.70
2018-04-13T13:43:03.623Z,16.80
2018-04-13T13:47:59.244Z,16.70
2018-04-13T13:50:26.694Z,16.70
2018-04-13T13:52:54.298Z,16.70
2018-04-13T13:55:21.667Z,16.60
2018-04-13T13:57:49.379Z,16.60
2018-04-13T14:00:17.479Z,16.60
2018-04-13T14:02:45.640Z,16.70
2018-04-13T14:05:13.738Z,16.70
2018-04-13T14:07:41.111Z,16.80
2018-04-13T14:12:36.763Z,16.90
2018-04-13T14:17:33.180Z,16.70
2018-04-13T14:22:29.071Z,16.70
2018-04-13T14:24:56.560Z,16.60
2018-04-13T14:27:24.761Z,16.50
2018-04-13T14:29:52.079Z,16.40
2018-04-13T14:32:19.522Z,16.40
2018-04-13T14:34:46.906Z,16.50
2018-04-13T14:37:14.249Z,16.60
2018-04-13T14:39:41.583Z,16.50
2018-04-13T14:42:08.964Z,16.40
2018-04-13T14:44:36.298Z,16.40
2018-04-13T14:47:03.743Z,16.40
2018-04-13T14:49:31.058Z,16.50
2018-04-13T14:51:59.100Z,16.50
2018-04-13T14:54:26.412Z,16.60
2018-04-13T14:56:53.695Z,16.70
2018-04-13T14:59:20.961Z,16.70
2018-04-13T15:01:48.476Z,16.70
2018-04-13T15:04:15.779Z,16.80
2018-04-13T15:06:43.157Z,16.80
2018-04-13T15:09:11.268Z,16.90
2018-04-13T15:14:07.632Z,17.00
2018-04-13T15:19:03.210Z,16.80
2018-04-13T15:21:31.176Z,16.70
2018-04-13T15:23:59.185Z,16.90
2018-04-13T15:26:26.856Z,17.00
2018-04-13T15:28:54.199Z,17.00
2018-04-13T15:31:22.345Z,17.00
2018-04-13T15:36:18.843Z,17.00
2018-04-13T15:41:14.450Z,17.00
2018-04-13T15:43:42.092Z,17.00
2018-04-13T15:48:37.755Z,17.00
2018-04-13T15:51:05.051Z,17.10
2018-04-13T15:53:33.100Z,17.20
2018-04-13T15:58:29.483Z,17.20
2018-04-13T16:00:56.738Z,17.20
2018-04-13T16:03:23.989Z,17.30
2018-04-13T16:05:52.032Z,17.40
2018-04-13T16:10:48.319Z,17.30
2018-04-13T16:13:16.733Z,17.20
2018-04-13T16:15:43.990Z,17.20
2018-04-13T16:18:11.323Z,17.20
2018-04-13T16:20:38.567Z,17.20
2018-04-13T16:23:07.363Z,17.20
2018-04-13T16:25:34.965Z,17.20
2018-04-13T16:30:30.455Z,17.20
2018-04-13T16:32:57.725Z,17.10
2018-04-13T16:35:25.036Z,17.00
2018-04-13T16:37:52.527Z,16.90
2018-04-13T16:40:20.647Z,16.90
2018-04-13T16:42:48.826Z,16.80
2018-04-13T16:45:16.166Z,16.70
2018-04-13T16:50:12.554Z,16.70
2018-04-13T16:52:39.830Z,16.70
2018-04-13T16:55:07.183Z,16.60
2018-04-13T16:57:34.519Z,16.40
2018-04-13T17:00:01.762Z,16.30
2018-04-13T17:02:29.794Z,16.40
2018-04-13T17:04:59.292Z,16.40
2018-04-13T17:09:54.815Z,16.10
2018-04-13T17:12:22.847Z,16.00
2018-04-13T17:14:50.087Z,16.00
2018-04-13T17:17:18.135Z,16.10
2018-04-13T17:22:13.615Z,16.10
2018-04-13T17:27:09.825Z,16.10
2018-04-13T17:29:37.304Z,16.00
2018-04-13T17:32:04.567Z,15.90
2018-04-13T17:34:31.903Z,15.80
2018-04-13T17:41:56.667Z,15.80
2018-04-13T17:44:24.691Z,15.90
2018-04-13T17:46:52.712Z,16.00
2018-04-13T17:51:48.289Z,16.10
2018-04-13T17:54:15.666Z,16.20
2018-04-13T18:01:39.459Z,16.00
2018-04-13T18:04:06.759Z,15.90
2018-04-13T18:06:34.803Z,15.80
2018-04-13T18:09:02.065Z,15.80
2018-04-13T18:11:29.392Z,15.70
2018-04-13T18:13:56.722Z,15.70
2018-04-13T18:16:25.034Z,15.70
2018-04-13T18:18:52.477Z,15.60
2018-04-13T18:21:19.790Z,15.60
2018-04-13T18:23:47.784Z,15.60
2018-04-13T18:26:15.092Z,15.70
2018-04-13T18:28:43.311Z,15.70
2018-04-13T18:31:10.631Z,15.60
2018-04-13T18:33:38.728Z,15.60
2018-04-13T18:38:34.175Z,15.50
2018-04-13T18:43:30.607Z,15.50
2018-04-13T18:45:58.743Z,15.50
2018-04-13T18:50:54.238Z,15.50
2018-04-13T18:53:21.516Z,15.40
2018-04-13T18:55:49.522Z,15.30
2018-04-13T18:58:17.563Z,15.20
2018-04-13T19:00:45.647Z,15.30
2018-04-13T19:03:12.953Z,15.40
2018-04-13T19:05:41.132Z,15.30
2018-04-13T19:10:36.701Z,14.90
2018-04-13T19:13:03.962Z,14.80
2018-04-13T19:15:31.243Z,14.50
2018-04-13T19:17:59.324Z,14.10
2018-04-13T19:20:26.678Z,14.20
2018-04-13T19:22:53.952Z,14.30
2018-04-13T19:25:21.248Z,14.10
2018-04-13T19:27:48.563Z,14.00
2018-04-13T19:30:15.840Z,13.90
2018-04-13T19:32:43.884Z,13.80
2018-04-13T19:35:11.131Z,13.80
2018-04-13T19:42:35.086Z,14.20
2018-04-13T19:45:02.384Z,14.30
2018-04-13T19:49:58.673Z,14.60
2018-04-13T19:52:25.919Z,14.70
2018-04-13T19:54:54.001Z,14.60
2018-04-13T19:57:21.478Z,14.60
2018-04-13T20:02:17.210Z,14.60
2018-04-13T20:04:44.619Z,14.70
2018-04-13T20:07:11.943Z,14.70
2018-04-13T20:12:08.178Z,14.70
2018-04-13T20:14:35.478Z,14.70
2018-04-13T20:17:03.688Z,14.60
2018-04-13T20:19:30.982Z,14.50
2018-04-13T20:24:26.494Z,14.70
2018-04-13T20:31:50.291Z,14.70
2018-04-13T20:34:17.559Z,14.80
2018-04-13T20:36:44.858Z,14.80
2018-04-13T20:39:12.131Z,14.70
2018-04-13T20:41:39.589Z,14.70
2018-04-13T20:44:08.846Z,14.80
2018-04-13T20:46:36.764Z,14.90
2018-04-13T20:49:05.641Z,14.90
2018-04-13T20:51:32.922Z,14.80
2018-04-13T20:54:00.224Z,14.80
2018-04-13T20:56:27.528Z,14.80
2018-04-13T20:58:54.845Z,14.80
2018-04-13T21:06:18.974Z,14.90
2018-04-13T21:08:46.236Z,14.90
2018-04-13T21:11:13.515Z,14.90
2018-04-13T21:13:40.771Z,14.90
2018-04-13T21:16:08.920Z,14.80
2018-04-13T21:18:37.111Z,14.80
2018-04-13T21:23:32.711Z,14.50
2018-04-13T21:28:29.231Z,14.30
2018-04-13T21:30:56.545Z,14.30
2018-04-13T21:33:23.818Z,14.20
2018-04-13T21:35:51.819Z,14.10
2018-04-13T21:38:19.854Z,13.90
2018-04-13T21:40:47.400Z,13.70
2018-04-13T21:43:15.484Z,13.40
2018-04-13T21:45:42.863Z,13.30
2018-04-13T21:48:10.954Z,13.20
2018-04-13T21:50:38.183Z,13.30
2018-04-13T21:55:33.936Z,13.30
2018-04-13T21:58:01.975Z,13.30
2018-04-13T22:00:30.041Z,13.20
2018-04-13T22:02:57.322Z,13.30
2018-04-13T22:07:53.592Z,13.40
2018-04-13T22:10:20.923Z,13.60
2018-04-13T22:13:01.346Z,13.40
2018-04-13T22:15:29.621Z,13.00
2018-04-13T22:20:25.902Z,12.70
2018-04-13T22:25:21.653Z,12.50
2018-04-13T22:27:48.911Z,12.40
2018-04-13T22:30:16.363Z,12.30
2018-04-13T22:35:11.829Z,12.30
2018-04-13T22:40:08.003Z,12.50
2018-04-13T22:42:36.036Z,12.40
2018-04-13T22:45:03.410Z,12.30
2018-04-13T22:47:30.815Z,12.20
2018-04-13T22:49:58.195Z,12.00
2018-04-13T22:52:25.523Z,12.00
2018-04-13T22:54:52.919Z,12.00
2018-04-13T22:57:20.991Z,11.90
2018-04-13T23:02:16.689Z,11.90
2018-04-13T23:07:13.170Z,11.90
2018-04-13T23:09:41.345Z,11.90
2018-04-13T23:17:05.352Z,11.80
2018-04-13T23:22:01.142Z,11.80
2018-04-13T23:24:28.551Z,12.00
2018-04-13T23:31:52.554Z,12.00
2018-04-13T23:34:20.648Z,12.00
2018-04-13T23:36:48.024Z,12.10
2018-04-13T23:39:15.369Z,12.20
2018-04-13T23:41:42.743Z,12.20
2018-04-13T23:46:39.177Z,12.20
2018-04-13T23:49:07.324Z,12.20
2018-04-13T23:51:34.697Z,12.20
2018-04-13T23:56:30.507Z,12.20
2018-04-13T23:58:57.865Z,12.20
